createdAt,value
2022-12-18T00:02:35.622Z,98929.00
2022-12-18T00:06:37.258Z,98924.00
2022-12-18T00:10:38.185Z,98927.00
2022-12-18T00:14:39.275Z,98926.00
2022-12-18T00:18:43.191Z,98917.00
2022-12-18T00:22:44.367Z,98926.00
2022-12-18T00:26:45.519Z,98917.00
2022-12-18T00:30:46.780Z,98916.00
2022-12-18T00:34:47.866Z,98929.00
2022-12-18T00:38:48.830Z,98919.00
2022-12-18T00:42:56.146Z,98917.00
2022-12-18T00:46:57.036Z,98933.00
2022-12-18T00:50:58.345Z,98928.00
2022-12-18T00:55:04.494Z,98937.00
2022-12-18T00:59:02.222Z,98943.00
2022-12-18T01:03:04.361Z,98930.00
2022-12-18T01:07:05.618Z,98929.00
2022-12-18T01:11:12.688Z,98928.00
2022-12-18T01:15:14.959Z,98941.00
2022-12-18T01:19:16.358Z,98945.00
2022-12-18T01:23:18.407Z,98955.00
2022-12-18T01:27:19.489Z,98969.00
2022-12-18T01:31:23.421Z,98967.00
2022-12-18T01:35:24.567Z,98971.00
2022-12-18T01:39:25.644Z,98971.00
2022-12-18T01:43:46.802Z,98966.00
2022-12-18T01:47:54.890Z,98957.00
2022-12-18T01:51:55.849Z,98948.00
2022-12-18T01:55:58.070Z,98952.00
2022-12-18T02:00:06.075Z,98954.00
2022-12-18T02:04:26.076Z,98951.00
2022-12-18T02:08:33.704Z,98943.00
2022-12-18T02:12:38.493Z,98946.00
2022-12-18T02:16:43.407Z,98938.00
2022-12-18T02:20:48.265Z,98942.00
2022-12-18T02:25:04.785Z,98940.00
2022-12-18T02:29:12.515Z,98929.00
2022-12-18T02:33:14.655Z,98933.00
2022-12-18T02:37:18.657Z,98936.00
2022-12-18T02:41:20.246Z,98939.00
2022-12-18T02:45:21.371Z,98941.00
2022-12-18T02:49:44.094Z,98946.00
2022-12-18T02:54:05.554Z,98950.00
2022-12-18T02:58:13.170Z,98945.00
2022-12-18T03:02:24.325Z,98939.00
2022-12-18T03:06:29.142Z,98951.00
2022-12-18T03:10:33.790Z,98955.00
2022-12-18T03:14:36.791Z,98947.00
2022-12-18T03:18:44.790Z,98936.00
2022-12-18T03:22:49.523Z,98925.00
2022-12-18T03:26:57.462Z,98943.00
2022-12-18T03:31:01.537Z,98933.00
2022-12-18T03:35:05.495Z,98934.00
2022-12-18T03:39:06.765Z,98934.00
2022-12-18T03:43:11.682Z,98930.00
2022-12-18T03:47:31.692Z,98926.00
2022-12-18T03:51:51.393Z,98934.00
2022-12-18T03:55:53.412Z,98939.00
2022-12-18T04:00:01.501Z,98934.00
2022-12-18T04:04:04.177Z,98943.00
2022-12-18T04:08:05.757Z,98939.00
2022-12-18T04:12:06.954Z,98926.00
2022-12-18T04:16:09.835Z,98922.00
2022-12-18T04:20:11.706Z,98932.00
2022-12-18T04:24:12.862Z,98926.00
2022-12-18T04:28:17.972Z,98918.00
2022-12-18T04:32:21.760Z,98918.00
2022-12-18T04:36:22.905Z,98926.00
2022-12-18T04:40:26.025Z,98927.00
2022-12-18T04:44:27.154Z,98922.00
2022-12-18T04:48:29.099Z,98918.00
2022-12-18T04:52:33.079Z,98913.00
2022-12-18T04:56:35.063Z,98921.00
2022-12-18T05:00:36.273Z,98917.00
2022-12-18T05:04:38.322Z,98911.00
2022-12-18T05:08:39.279Z,98920.00
2022-12-18T05:12:42.334Z,98920.00
2022-12-18T05:16:43.333Z,98924.00
2022-12-18T05:20:45.169Z,98931.00
2022-12-18T05:24:46.312Z,98932.00
2022-12-18T05:28:47.553Z,98928.00
2022-12-18T05:32:48.516Z,98922.00
2022-12-18T05:36:49.646Z,98927.00
2022-12-18T05:40:51.764Z,98924.00
2022-12-18T05:44:52.782Z,98940.00
2022-12-18T05:48:53.909Z,98919.00
2022-12-18T05:52:54.891Z,98933.00
2022-12-18T05:56:56.143Z,98930.00
2022-12-18T06:00:58.003Z,98927.00
2022-12-18T06:04:59.009Z,98930.00
2022-12-18T06:09:01.748Z,98928.00
2022-12-18T06:13:02.903Z,98930.00
2022-12-18T06:17:04.079Z,98936.00
2022-12-18T06:21:05.353Z,98936.00
2022-12-18T06:25:07.575Z,98935.00
2022-12-18T06:29:09.190Z,98924.00
2022-12-18T06:33:10.396Z,98943.00
2022-12-18T06:37:11.640Z,98941.00
2022-12-18T06:41:15.508Z,98941.00
2022-12-18T06:45:16.826Z,98943.00
2022-12-18T06:49:20.366Z,98956.00
2022-12-18T06:53:21.694Z,98963.00
2022-12-18T06:57:22.675Z,98961.00
2022-12-18T07:01:24.023Z,98975.00
2022-12-18T07:05:25.308Z,98975.00
2022-12-18T07:09:26.514Z,98978.00
2022-12-18T07:13:27.907Z,99001.00
2022-12-18T07:17:30.090Z,98984.00
2022-12-18T07:21:31.293Z,98981.00
2022-12-18T07:25:36.364Z,98762.00
2022-12-18T07:29:37.551Z,98967.00
2022-12-18T07:33:39.460Z,98970.00
2022-12-18T07:37:40.868Z,98970.00
2022-12-18T07:41:47.371Z,98980.00
2022-12-18T07:45:51.053Z,98968.00
2022-12-18T07:49:52.406Z,98973.00
2022-12-18T07:53:53.528Z,98970.00
2022-12-18T07:57:59.372Z,98773.00
2022-12-18T08:01:57.769Z,98983.00
2022-12-18T08:06:03.541Z,98977.00
2022-12-18T08:10:05.293Z,98971.00
2022-12-18T08:14:08.955Z,98976.00
2022-12-18T08:18:14.401Z,98966.00
2022-12-18T08:22:14.715Z,98965.00
2022-12-18T08:26:16.507Z,98970.00
2022-12-18T08:30:17.548Z,98966.00
2022-12-18T08:34:18.939Z,98965.00
2022-12-18T08:38:19.876Z,98958.00
2022-12-18T08:42:39.132Z,98952.00
2022-12-18T08:46:42.208Z,98955.00
2022-12-18T08:50:43.347Z,98942.00
2022-12-18T08:54:44.485Z,98930.00
2022-12-18T08:58:45.651Z,98935.00
2022-12-18T09:02:47.028Z,98932.00
2022-12-18T09:06:48.385Z,98940.00
2022-12-18T09:10:50.828Z,98928.00
2022-12-18T09:14:52.082Z,98937.00
2022-12-18T09:18:55.176Z,98945.00
2022-12-18T09:22:56.331Z,98958.00
2022-12-18T09:26:58.175Z,98961.00
2022-12-18T09:30:59.516Z,98958.00
2022-12-18T09:35:02.689Z,98951.00
2022-12-18T09:39:08.273Z,98962.00
2022-12-18T09:43:09.693Z,98953.00
2022-12-18T09:47:17.249Z,98946.00
2022-12-18T09:51:22.167Z,98948.00
2022-12-18T09:55:37.628Z,98943.00
2022-12-18T09:59:42.654Z,98942.00
2022-12-18T10:03:43.708Z,98943.00
2022-12-18T10:07:54.670Z,98964.00
2022-12-18T10:12:11.912Z,98943.00
2022-12-18T10:16:22.535Z,98945.00
2022-12-18T10:20:27.511Z,98931.00
2022-12-18T10:24:35.623Z,98941.00
2022-12-18T10:28:39.524Z,98938.00
2022-12-18T10:32:41.043Z,98915.00
2022-12-18T10:36:43.364Z,98902.00
2022-12-18T10:40:58.477Z,98916.00
2022-12-18T10:45:09.087Z,98925.00
2022-12-18T10:49:32.025Z,98917.00
2022-12-18T10:53:36.527Z,98918.00
2022-12-18T10:57:41.027Z,98915.00
2022-12-18T11:02:00.114Z,98916.00
2022-12-18T11:06:10.931Z,98932.00
2022-12-18T11:10:15.741Z,98928.00
2022-12-18T11:14:26.208Z,98923.00
2022-12-18T11:18:30.939Z,98912.00
2022-12-18T11:22:35.338Z,98887.00
2022-12-18T11:26:37.435Z,98905.00
2022-12-18T11:30:38.408Z,98913.00
2022-12-18T11:34:42.498Z,98899.00
2022-12-18T11:38:45.152Z,98897.00
2022-12-18T11:42:52.663Z,98884.00
2022-12-18T11:46:57.754Z,98893.00
2022-12-18T11:51:02.796Z,98893.00
2022-12-18T11:55:16.590Z,98886.00
2022-12-18T11:59:33.625Z,98895.00
2022-12-18T12:03:44.905Z,98890.00
2022-12-18T12:07:53.083Z,98897.00
2022-12-18T12:12:00.944Z,98896.00
2022-12-18T12:16:20.592Z,98902.00
2022-12-18T12:20:45.163Z,98905.00
2022-12-18T12:25:23.027Z,98917.00
2022-12-18T12:29:44.624Z,98905.00
2022-12-18T12:33:52.563Z,98910.00
2022-12-18T12:38:10.109Z,98894.00
2022-12-18T12:43:00.446Z,98862.00
2022-12-18T12:47:05.518Z,98855.00
2022-12-18T12:51:23.416Z,98871.00
2022-12-18T12:55:27.349Z,98873.00
2022-12-18T12:59:35.008Z,98886.00
2022-12-18T13:03:57.467Z,98873.00
2022-12-18T13:08:07.519Z,98890.00
2022-12-18T13:12:30.240Z,98891.00
2022-12-18T13:16:33.944Z,98885.00
2022-12-18T13:20:38.021Z,98878.00
2022-12-18T13:24:39.237Z,98874.00
2022-12-18T13:28:50.452Z,98881.00
2022-12-18T13:33:11.914Z,98877.00
2022-12-18T13:37:34.237Z,98867.00
2022-12-18T13:41:35.411Z,98864.00
2022-12-18T13:45:40.436Z,98864.00
2022-12-18T13:49:44.208Z,98883.00
2022-12-18T13:54:01.114Z,98850.00
2022-12-18T13:58:06.853Z,98863.00
2022-12-18T14:02:17.761Z,98844.00
2022-12-18T14:06:19.262Z,98838.00
2022-12-18T14:14:32.373Z,98855.00
2022-12-18T14:19:04.116Z,98859.00
2022-12-18T14:23:04.914Z,98876.00
2022-12-18T14:27:24.533Z,98872.00
2022-12-18T14:31:28.888Z,98866.00
2022-12-18T14:35:33.297Z,98884.00
2022-12-18T14:39:34.335Z,98878.00
2022-12-18T14:43:37.571Z,98864.00
2022-12-18T14:47:39.164Z,98868.00
2022-12-18T14:51:44.700Z,98872.00
2022-12-18T14:55:48.545Z,98876.00
2022-12-18T14:59:50.546Z,98850.00
2022-12-18T15:03:53.328Z,98853.00
2022-12-18T15:07:56.668Z,98857.00
2022-12-18T15:12:01.863Z,98848.00
2022-12-18T15:16:03.790Z,98856.00
2022-12-18T15:20:08.899Z,98850.00
2022-12-18T15:24:19.676Z,98852.00
2022-12-18T15:28:24.920Z,98844.00
2022-12-18T15:32:26.131Z,98850.00
2022-12-18T15:36:27.801Z,98845.00
2022-12-18T15:40:30.932Z,98831.00
2022-12-18T15:44:32.439Z,98834.00
2022-12-18T15:48:35.955Z,98826.00
2022-12-18T15:52:43.400Z,98834.00
2022-12-18T15:57:02.785Z,98826.00
2022-12-18T16:01:04.253Z,98812.00
2022-12-18T16:05:17.508Z,98811.00
2022-12-18T16:09:23.077Z,98817.00
2022-12-18T16:13:22.355Z,98815.00
2022-12-18T16:17:23.910Z,98821.00
2022-12-18T16:21:28.216Z,98813.00
2022-12-18T16:25:29.096Z,98798.00
2022-12-18T16:29:30.480Z,98793.00
2022-12-18T16:33:31.567Z,98775.00
2022-12-18T16:37:32.811Z,98763.00
2022-12-18T16:41:34.226Z,98768.00
2022-12-18T16:45:35.318Z,98769.00
2022-12-18T16:49:36.867Z,98762.00
2022-12-18T16:53:38.284Z,98760.00
2022-12-18T16:57:39.662Z,98762.00
2022-12-18T17:01:41.163Z,98771.00
2022-12-18T17:05:42.685Z,98760.00
2022-12-18T17:09:45.724Z,98748.00
2022-12-18T17:13:47.229Z,98748.00
2022-12-18T17:17:48.502Z,98748.00
2022-12-18T17:21:50.699Z,98747.00
2022-12-18T17:25:54.968Z,98751.00
2022-12-18T17:29:56.064Z,98738.00
2022-12-18T17:33:57.814Z,98743.00
2022-12-18T17:37:58.793Z,98741.00
2022-12-18T17:41:59.900Z,98753.00
2022-12-18T17:46:06.099Z,98748.00
2022-12-18T17:50:09.541Z,98744.00
2022-12-18T17:54:11.082Z,98737.00
2022-12-18T17:58:13.124Z,98746.00
2022-12-18T18:02:15.241Z,98746.00
2022-12-18T18:06:17.850Z,98738.00
2022-12-18T18:10:19.077Z,98732.00
2022-12-18T18:14:20.671Z,98730.00
2022-12-18T18:18:21.639Z,98717.00
2022-12-18T18:22:24.538Z,98723.00
2022-12-18T18:26:29.538Z,98703.00
2022-12-18T18:30:31.403Z,98733.00
2022-12-18T18:34:33.127Z,98726.00
2022-12-18T18:38:34.211Z,98722.00
2022-12-18T18:42:35.912Z,98705.00
2022-12-18T18:46:37.078Z,98717.00
2022-12-18T18:50:38.460Z,98703.00
2022-12-18T18:54:51.949Z,98690.00
2022-12-18T18:58:44.298Z,98689.00
2022-12-18T19:02:45.608Z,98685.00
2022-12-18T19:06:48.061Z,98696.00
2022-12-18T19:10:57.792Z,98679.00
2022-12-18T19:14:58.858Z,98680.00
2022-12-18T19:19:01.957Z,98688.00
2022-12-18T19:23:03.560Z,98674.00
2022-12-18T19:27:04.593Z,98690.00
2022-12-18T19:31:08.740Z,98692.00
2022-12-18T19:35:10.514Z,98690.00
2022-12-18T19:39:14.914Z,98691.00
2022-12-18T19:43:16.917Z,98672.00
2022-12-18T19:47:18.446Z,98682.00
2022-12-18T19:51:22.779Z,98670.00
2022-12-18T19:55:24.251Z,98665.00
2022-12-18T19:59:25.261Z,98654.00
2022-12-18T20:03:32.164Z,98648.00
2022-12-18T20:07:30.264Z,98663.00
2022-12-18T20:11:33.187Z,98671.00
2022-12-18T20:15:40.466Z,98665.00
2022-12-18T20:19:39.711Z,98669.00
2022-12-18T20:23:55.542Z,98665.00
2022-12-18T20:27:48.747Z,98656.00
2022-12-18T20:31:51.160Z,98672.00
2022-12-18T20:35:52.626Z,98660.00
2022-12-18T20:39:54.565Z,98670.00
2022-12-18T20:43:57.305Z,98684.00
2022-12-18T20:48:00.452Z,98678.00
2022-12-18T20:52:02.502Z,98673.00
2022-12-18T20:56:10.458Z,98671.00
2022-12-18T21:00:13.966Z,98673.00
2022-12-18T21:04:19.706Z,98656.00
2022-12-18T21:08:21.328Z,98664.00
2022-12-18T21:12:40.329Z,98671.00
2022-12-18T21:16:46.220Z,98680.00
2022-12-18T21:20:48.151Z,98683.00
2022-12-18T21:24:50.312Z,98673.00
2022-12-18T21:28:56.483Z,98656.00
2022-12-18T21:32:57.811Z,98673.00
2022-12-18T21:37:00.710Z,98697.00
2022-12-18T21:41:07.591Z,98687.00
2022-12-18T21:45:10.518Z,98683.00
2022-12-18T21:49:22.456Z,98676.00
2022-12-18T21:53:23.775Z,98669.00
2022-12-18T21:57:25.014Z,98673.00
2022-12-18T22:01:26.319Z,98665.00
2022-12-18T22:05:29.440Z,98663.00
2022-12-18T22:09:30.901Z,98664.00
2022-12-18T22:13:32.117Z,98656.00
2022-12-18T22:17:33.236Z,98654.00
2022-12-18T22:21:37.415Z,98654.00
2022-12-18T22:25:39.839Z,98655.00
2022-12-18T22:29:58.062Z,98660.00
2022-12-18T22:33:59.208Z,98658.00
2022-12-18T22:38:04.008Z,98657.00
2022-12-18T22:42:05.724Z,98665.00
2022-12-18T22:46:11.167Z,98641.00
2022-12-18T22:50:15.335Z,98637.00
2022-12-18T22:54:16.572Z,98650.00
2022-12-18T22:58:19.493Z,98639.00
2022-12-18T23:02:20.867Z,98652.00
2022-12-18T23:06:24.598Z,98648.00
2022-12-18T23:10:25.879Z,98646.00
2022-12-18T23:14:28.009Z,98656.00
2022-12-18T23:18:29.159Z,98651.00
2022-12-18T23:22:30.456Z,98650.00
2022-12-18T23:26:34.602Z,98645.00
2022-12-18T23:30:36.533Z,98639.00
2022-12-18T23:39:03.981Z,98632.00
2022-12-18T23:43:07.102Z,98634.00
2022-12-18T23:47:08.500Z,98649.00
2022-12-18T23:51:11.358Z,98625.00
2022-12-18T23:55:12.504Z,98610.00
2022-12-18T23:59:13.967Z,98609.00
